Time;durP1;ratioP1;P1;durP2;ratioP2;P2;SDS_P1;SDS_P2;PMS_P1;PMS_P2;Temp;Humidity;BMP_temperature;BMP_pressure;BME280_temperature;BME280_humidity;BME280_pressure;Samples;Min_cycle;Max_cycle;Signal;HPM_P1;HPM_P2
2023/09/06 00:00:49;;;;;;;;;;;;;;;27.58;45.38;102056.88;5050991;28;20774;-72
2023/09/06 00:03:14;;;;;;;;;;;;;;;27.58;45.60;102061.41;5056086;28;19995;-72
2023/09/06 00:05:41;;;;;;;;;;;;;;;27.57;45.56;102057.91;5056650;28;19984;-72
2023/09/06 00:08:08;;;;;;;;;;;;;;;27.56;45.62;102061.59;5059489;28;20447;-71
2023/09/06 00:10:34;;;;;;;;;;;;;;;27.54;45.57;102058.31;5060841;28;20485;-72
2023/09/06 00:13:00;;;;;;;;;;;;;;;27.57;45.39;102060.56;5062686;28;19949;-71
2023/09/06 00:15:25;;;;;;;;;;;;;;;27.57;45.53;102057.91;5065515;28;20084;-72
2023/09/06 00:17:50;;;;;;;;;;;;;;;27.57;45.59;102057.91;5093106;27;19970;-72
2023/09/06 00:20:19;;;;;;;;;;;;;;;27.57;45.34;102052.56;5065613;28;20038;-72
2023/09/06 00:22:46;;;;;;;;;;;;;;;27.57;45.31;102052.56;5065525;28;19978;-71
2023/09/06 00:25:11;;;;;;;;;;;;;;;27.52;45.69;102046.16;5066538;28;21225;-72
2023/09/06 00:27:37;;;;;;;;;;;;;;;27.60;45.31;102049.47;5072319;28;19953;-72
2023/09/06 00:30:02;;;;;;;;;;;;;;;27.60;45.52;102043.28;5060673;28;19944;-72
2023/09/06 00:32:28;;;;;;;;;;;;;;;27.59;45.53;102047.81;5073526;28;19942;-71
2023/09/06 00:34:53;;;;;;;;;;;;;;;27.55;45.44;102046.59;5059846;28;19949;-72
2023/09/06 00:37:20;;;;;;;;;;;;;;;27.58;45.53;102048.03;5063684;28;19949;-72
2023/09/06 00:39:45;;;;;;;;;;;;;;;27.53;45.35;102048.63;5059347;28;19950;-72
2023/09/06 00:42:11;;;;;;;;;;;;;;;27.54;45.24;102049.47;5060986;28;19969;-72
2023/09/06 00:44:36;;;;;;;;;;;;;;;27.59;45.39;102050.50;5063385;28;19991;-71
2023/09/06 00:47:01;;;;;;;;;;;;;;;27.58;45.37;102051.53;5062260;28;20002;-72
2023/09/06 00:49:27;;;;;;;;;;;;;;;27.55;45.42;102049.25;5065054;28;19974;-72
2023/09/06 00:51:52;;;;;;;;;;;;;;;27.58;45.18;102056.06;5058336;28;20371;-72
2023/09/06 00:54:18;;;;;;;;;;;;;;;27.58;45.10;102048.84;5057138;28;20663;-71
2023/09/06 00:56:45;;;;;;;;;;;;;;;27.52;45.58;102047.00;5057136;28;20091;-72
2023/09/06 00:59:11;;;;;;;;;;;;;;;27.55;45.30;102045.75;5061350;28;20038;-72
2023/09/06 01:01:37;;;;;;;;;;;;;;;27.54;45.50;102050.28;5054252;28;19952;-72
2023/09/06 01:04:04;;;;;;;;;;;;;;;27.55;45.36;102054.59;5057385;28;20378;-71
2023/09/06 01:06:33;;;;;;;;;;;;;;;27.56;45.18;102056.25;5060370;28;20340;-72
2023/09/06 01:08:59;;;;;;;;;;;;;;;27.55;45.23;102051.09;5056537;28;20062;-72
2023/09/06 01:11:25;;;;;;;;;;;;;;;27.55;45.41;102057.28;5061647;28;20046;-72
2023/09/06 01:13:51;;;;;;;;;;;;;;;27.51;45.50;102053.38;5058836;28;20397;-71
2023/09/06 01:16:20;;;;;;;;;;;;;;;27.55;45.61;102056.47;5057665;28;19950;-72
2023/09/06 01:18:45;;;;;;;;;;;;;;;27.56;45.34;102052.75;5057395;28;19982;-72
2023/09/06 01:21:13;;;;;;;;;;;;;;;27.53;45.71;102050.50;5062198;28;19950;-72
2023/09/06 01:23:41;;;;;;;;;;;;;;;27.58;45.30;102058.72;5056487;28;19970;-72
2023/09/06 01:26:06;;;;;;;;;;;;;;;27.54;45.40;102057.50;5059274;28;19937;-72
2023/09/06 01:28:32;;;;;;;;;;;;;;;27.56;45.49;102064.28;5054764;28;19945;-72
2023/09/06 01:31:00;;;;;;;;;;;;;;;27.56;45.46;102063.47;5054131;28;19985;-72
2023/09/06 01:33:29;;;;;;;;;;;;;;;27.53;45.52;102067.38;5057534;28;20002;-71
2023/09/06 01:35:55;;;;;;;;;;;;;;;27.53;45.26;102059.34;5060430;28;19979;-72
2023/09/06 01:38:21;;;;;;;;;;;;;;;27.53;45.37;102064.69;5041393;28;20497;-71
2023/09/06 01:40:47;;;;;;;;;;;;;;;27.53;45.22;102063.88;5058068;28;20067;-72
2023/09/06 01:43:12;;;;;;;;;;;;;;;27.55;45.43;102062.63;5058506;28;19972;-72
2023/09/06 01:45:55;;;;;;;;;;;;;;;27.56;45.18;102066.13;5029312;28;20049;-72
2023/09/06 01:48:21;;;;;;;;;;;;;;;27.53;45.30;102066.53;5070091;28;20314;-72
2023/09/06 01:50:47;;;;;;;;;;;;;;;27.54;45.23;102066.34;5060323;28;19979;-72
2023/09/06 01:53:13;;;;;;;;;;;;;;;27.55;45.48;102062.63;5055510;28;20396;-71
2023/09/06 01:55:43;;;;;;;;;;;;;;;27.53;45.33;102059.34;5059511;28;20476;-71
2023/09/06 01:58:09;;;;;;;;;;;;;;;27.57;45.48;102059.75;5087310;27;20068;-72
2023/09/06 02:00:37;;;;;;;;;;;;;;;27.55;45.50;102062.63;5057707;28;20012;-72
2023/09/06 02:03:02;;;;;;;;;;;;;;;27.53;45.30;102063.88;5055431;28;20780;-72
2023/09/06 02:05:30;;;;;;;;;;;;;;;27.52;45.34;102063.03;5057496;28;19943;-72
2023/09/06 02:07:55;;;;;;;;;;;;;;;27.54;45.29;102068.19;5057532;28;20060;-72
2023/09/06 02:10:21;;;;;;;;;;;;;;;27.50;45.19;102061.59;5055493;28;19958;-71
2023/09/06 02:12:46;;;;;;;;;;;;;;;27.51;45.56;102061.41;5092074;27;19975;-71
2023/09/06 02:15:15;;;;;;;;;;;;;;;27.51;45.38;102061.41;5060662;28;19948;-73
2023/09/06 02:17:43;;;;;;;;;;;;;;;27.56;45.36;102060.78;5055896;28;20078;-71
2023/09/06 02:20:19;;;;;;;;;;;;;;;27.53;45.27;102063.88;5058343;28;20650;-71
2023/09/06 02:22:46;;;;;;;;;;;;;;;27.58;45.25;102059.56;5057259;28;19964;-72
2023/09/06 02:25:13;;;;;;;;;;;;;;;27.50;45.43;102059.75;5059705;28;19937;-72
2023/09/06 02:27:40;;;;;;;;;;;;;;;27.54;45.39;102061.00;5057525;28;20407;-71
2023/09/06 02:30:06;;;;;;;;;;;;;;;27.51;45.32;102061.41;5054854;28;20000;-72
2023/09/06 02:32:34;;;;;;;;;;;;;;;27.56;45.36;102063.47;5057449;28;19985;-72
2023/09/06 02:34:59;;;;;;;;;;;;;;;27.50;45.16;102067.78;5052704;28;19937;-72
2023/09/06 02:37:25;;;;;;;;;;;;;;;27.55;44.95;102070.66;5057659;28;20458;-72
2023/09/06 02:39:53;;;;;;;;;;;;;;;27.54;45.05;102069.00;5047623;28;19946;-71
2023/09/06 02:42:19;;;;;;;;;;;;;;;27.53;45.41;102074.56;5055956;28;20535;-72
2023/09/06 02:44:44;;;;;;;;;;;;;;;27.51;45.35;102072.09;5073448;28;19956;-72
2023/09/06 02:47:11;;;;;;;;;;;;;;;27.51;45.15;102071.28;5058228;28;19941;-72
2023/09/06 02:49:41;;;;;;;;;;;;;;;27.51;45.23;102080.13;5054973;28;20000;-71
2023/09/06 02:52:12;;;;;;;;;;;;;;;27.52;45.32;102078.28;5053811;28;19989;-72
2023/09/06 02:54:42;;;;;;;;;;;;;;;27.53;44.96;102072.72;5082966;28;19975;-72
2023/09/06 02:57:10;;;;;;;;;;;;;;;27.52;45.21;102075.59;5062372;28;20400;-72
2023/09/06 02:59:35;;;;;;;;;;;;;;;27.56;45.06;102076.84;5060059;28;20491;-72
2023/09/06 03:02:05;;;;;;;;;;;;;;;27.50;45.05;102073.13;5054142;28;19947;-72
2023/09/06 03:04:37;;;;;;;;;;;;;;;27.56;45.04;102079.50;5048261;28;19971;-71
2023/09/06 03:07:09;;;;;;;;;;;;;;;27.52;45.24;102073.75;5052093;28;19951;-71
2023/09/06 03:09:35;;;;;;;;;;;;;;;27.51;45.08;102074.78;5050462;28;20048;-72
2023/09/06 03:12:11;;;;;;;;;;;;;;;27.50;45.33;102075.81;5058374;28;20649;-72
2023/09/06 03:14:44;;;;;;;;;;;;;;;27.54;45.31;102073.53;5069242;28;19948;-72
2023/09/06 03:17:11;;;;;;;;;;;;;;;27.51;44.92;102071.28;5058211;28;19974;-72
2023/09/06 03:19:40;;;;;;;;;;;;;;;27.50;45.19;102069.63;5061208;28;20511;-71
2023/09/06 03:22:09;;;;;;;;;;;;;;;27.50;45.09;102070.44;5060304;28;20482;-72
2023/09/06 03:24:34;;;;;;;;;;;;;;;27.51;45.04;102073.94;5050371;28;19944;-72
2023/09/06 03:27:02;;;;;;;;;;;;;;;27.51;45.15;102065.91;5053027;28;19950;-70
2023/09/06 03:29:31;;;;;;;;;;;;;;;27.54;44.88;102073.53;5058893;28;19999;-69
2023/09/06 03:31:57;;;;;;;;;;;;;;;27.52;44.83;102075.59;5058483;28;20471;-72
2023/09/06 03:34:24;;;;;;;;;;;;;;;27.52;45.09;102079.09;5058746;28;19943;-72
2023/09/06 03:36:55;;;;;;;;;;;;;;;27.54;44.85;102074.38;5088309;28;19943;-72
2023/09/06 03:39:21;;;;;;;;;;;;;;;27.48;45.09;102072.50;5060008;28;19938;-72
2023/09/06 03:41:46;;;;;;;;;;;;;;;27.53;45.29;102072.72;5061269;28;19947;-72
2023/09/06 03:44:12;;;;;;;;;;;;;;;27.49;45.04;102081.34;5060363;28;20026;-72
2023/09/06 03:46:38;;;;;;;;;;;;;;;27.48;45.25;102080.53;5064928;28;19987;-72
2023/09/06 03:49:06;;;;;;;;;;;;;;;27.51;45.11;102081.97;5055943;28;19974;-72
2023/09/06 03:51:32;;;;;;;;;;;;;;;27.49;45.24;102084.03;5062494;28;19955;-72
2023/09/06 03:53:59;;;;;;;;;;;;;;;27.50;45.19;102083.00;5061736;28;20463;-72
2023/09/06 03:56:26;;;;;;;;;;;;;;;27.52;45.11;102083.63;5058404;28;19947;-71
2023/09/06 03:58:53;;;;;;;;;;;;;;;27.51;44.82;102081.97;5060160;28;20321;-71
2023/09/06 04:01:19;;;;;;;;;;;;;;;27.45;44.89;102080.91;5058456;28;19943;-71
2023/09/06 04:03:50;;;;;;;;;;;;;;;27.48;45.05;102077.03;5060440;28;19971;-72
2023/09/06 04:06:16;;;;;;;;;;;;;;;27.50;45.24;102086.50;5073819;28;19962;-72
2023/09/06 04:08:43;;;;;;;;;;;;;;;27.47;44.90;102080.69;5053349;28;19943;-72
2023/09/06 04:11:12;;;;;;;;;;;;;;;27.46;44.92;102079.88;5058756;28;19949;-72
2023/09/06 04:13:37;;;;;;;;;;;;;;;27.46;44.82;102077.19;5071939;28;20754;-72
2023/09/06 04:16:05;;;;;;;;;;;;;;;27.50;45.16;102083.81;5064482;28;19954;-71
2023/09/06 04:18:34;;;;;;;;;;;;;;;27.46;45.22;102081.72;5041926;28;19945;-72
2023/09/06 04:21:00;;;;;;;;;;;;;;;27.48;44.94;102080.53;5061608;28;20104;-72
2023/09/06 04:23:26;;;;;;;;;;;;;;;27.46;44.80;102082.56;5062628;28;19995;-72
2023/09/06 04:25:55;;;;;;;;;;;;;;;27.47;44.84;102078.88;5063209;28;19943;-72
2023/09/06 04:28:25;;;;;;;;;;;;;;;27.47;45.09;102078.88;5056543;28;19961;-72
2023/09/06 04:30:52;;;;;;;;;;;;;;;27.45;45.13;102080.09;5091000;27;19948;-72
2023/09/06 04:33:21;;;;;;;;;;;;;;;27.46;45.10;102084.41;5055165;28;19992;-71
2023/09/06 04:35:52;;;;;;;;;;;;;;;27.49;44.98;102076.81;5092964;27;20046;-72
2023/09/06 04:38:20;;;;;;;;;;;;;;;27.50;44.97;102083.00;5067753;28;19939;-72
2023/09/06 04:40:49;;;;;;;;;;;;;;;27.47;44.90;102075.34;5064016;28;19993;-72
2023/09/06 04:43:18;;;;;;;;;;;;;;;27.45;45.07;102080.09;5058497;28;19972;-72
2023/09/06 04:45:44;;;;;;;;;;;;;;;27.47;45.06;102086.06;5095964;27;19949;-72
2023/09/06 04:48:10;;;;;;;;;;;;;;;27.47;45.10;102081.56;5058462;28;19947;-72
2023/09/06 04:50:39;;;;;;;;;;;;;;;27.42;45.13;102084.00;5066114;28;19945;-72
2023/09/06 04:53:11;;;;;;;;;;;;;;;27.44;44.92;102081.09;5058486;28;20994;-71
2023/09/06 04:55:37;;;;;;;;;;;;;;;27.44;44.74;102089.13;5098937;27;20453;-72
2023/09/06 04:58:06;;;;;;;;;;;;;;;27.45;45.00;102080.09;5079169;28;20473;-72
2023/09/06 05:00:33;;;;;;;;;;;;;;;27.40;44.90;102084.19;5031692;28;20092;-71
2023/09/06 05:02:58;;;;;;;;;;;;;;;27.42;45.13;102070.63;5057454;28;19967;-72
2023/09/06 05:05:24;;;;;;;;;;;;;;;27.44;44.86;102079.25;5064029;28;19940;-72
2023/09/06 05:07:50;;;;;;;;;;;;;;;27.44;44.60;102078.44;5077462;28;19982;-72
2023/09/06 05:10:17;;;;;;;;;;;;;;;27.45;45.06;102083.59;5058718;28;19950;-71
2023/09/06 05:12:43;;;;;;;;;;;;;;;27.48;44.54;102085.88;5062239;28;20049;-70
2023/09/06 05:15:09;;;;;;;;;;;;;;;27.45;44.69;102090.78;5061053;28;20322;-72
2023/09/06 05:17:35;;;;;;;;;;;;;;;27.47;44.54;102092.25;5061970;28;19953;-72
2023/09/06 05:20:19;;;;;;;;;;;;;;;27.47;44.97;102091.41;5052067;28;20031;-71
2023/09/06 05:22:44;;;;;;;;;;;;;;;27.45;44.68;102091.59;5056128;28;19959;-71
2023/09/06 05:25:09;;;;;;;;;;;;;;;27.45;44.71;102090.78;5056488;28;20001;-71
2023/09/06 05:27:35;;;;;;;;;;;;;;;27.40;44.97;102094.06;5058812;28;19953;-72
2023/09/06 05:30:01;;;;;;;;;;;;;;;27.43;44.60;102095.50;5059146;28;19944;-71
2023/09/06 05:32:26;;;;;;;;;;;;;;;27.42;44.89;102102.72;5062701;28;19982;-72
2023/09/06 05:34:51;;;;;;;;;;;;;;;27.43;44.91;102099.00;5067854;28;20365;-71
2023/09/06 05:37:18;;;;;;;;;;;;;;;27.45;44.81;102106.84;5051058;28;19947;-71
2023/09/06 05:39:43;;;;;;;;;;;;;;;27.43;44.98;102099.00;5059790;28;19947;-71
2023/09/06 05:42:09;;;;;;;;;;;;;;;27.46;44.96;102106.63;5053615;28;20019;-71
2023/09/06 05:44:34;;;;;;;;;;;;;;;27.47;44.48;102105.63;5056926;28;20421;-70
2023/09/06 05:47:00;;;;;;;;;;;;;;;27.43;44.70;102103.53;5058681;28;19954;-72
2023/09/06 05:49:26;;;;;;;;;;;;;;;27.42;44.94;102101.88;5058283;28;19999;-72
2023/09/06 05:51:52;;;;;;;;;;;;;;;27.44;44.73;102110.53;5049507;28;20001;-71
2023/09/06 05:54:18;;;;;;;;;;;;;;;27.43;44.86;102104.34;5054825;28;19951;-71
2023/09/06 05:56:45;;;;;;;;;;;;;;;27.42;44.89;102110.75;5058360;28;19957;-72
2023/09/06 05:59:14;;;;;;;;;;;;;;;27.43;44.91;102123.09;5052461;28;19961;-71
2023/09/06 06:01:40;;;;;;;;;;;;;;;27.39;44.92;102114.63;5054014;28;19946;-71
2023/09/06 06:04:06;;;;;;;;;;;;;;;27.42;44.66;102118.75;5053894;28;19965;-72
2023/09/06 06:06:31;;;;;;;;;;;;;;;27.41;44.66;102119.78;5054577;28;19945;-71
2023/09/06 06:08:57;;;;;;;;;;;;;;;27.40;44.68;102120.81;5057469;28;20888;-72
2023/09/06 06:11:22;;;;;;;;;;;;;;;27.43;44.65;102124.94;5056277;28;20016;-72
2023/09/06 06:13:48;;;;;;;;;;;;;;;27.40;44.58;102124.31;5056404;28;19945;-72
2023/09/06 06:16:14;;;;;;;;;;;;;;;27.45;44.51;102130.91;5052288;28;20034;-71
2023/09/06 06:18:40;;;;;;;;;;;;;;;27.42;44.83;102132.13;5055487;28;19951;-72
2023/09/06 06:21:05;;;;;;;;;;;;;;;27.46;44.64;102136.06;5057552;28;20124;-72
2023/09/06 06:23:30;;;;;;;;;;;;;;;27.39;44.92;102130.69;5052750;28;20019;-72
2023/09/06 06:25:56;;;;;;;;;;;;;;;27.39;44.57;102136.03;5054380;28;19946;-72
2023/09/06 06:28:22;;;;;;;;;;;;;;;27.42;44.84;102137.50;5055265;28;19991;-72
2023/09/06 06:30:47;;;;;;;;;;;;;;;27.42;44.89;102139.34;5051570;28;19942;-72
2023/09/06 06:33:13;;;;;;;;;;;;;;;27.26;44.52;102109.22;5055378;28;19950;-72
2023/09/06 06:35:38;;;;;;;;;;;;;;;27.44;44.86;102140.78;5056010;28;19956;-72
2023/09/06 06:38:04;;;;;;;;;;;;;;;27.45;44.42;102142.44;5056958;28;19946;-72
2023/09/06 06:40:33;;;;;;;;;;;;;;;27.46;44.55;102141.41;5062047;28;19945;-72
2023/09/06 06:43:00;;;;;;;;;;;;;;;27.46;44.54;102140.59;5060158;28;19958;-72
2023/09/06 06:45:26;;;;;;;;;;;;;;;27.46;44.55;102144.09;5060017;28;19947;-71
2023/09/06 06:47:52;;;;;;;;;;;;;;;27.46;44.77;102151.28;5063295;28;19947;-70
2023/09/06 06:50:19;;;;;;;;;;;;;;;27.53;44.61;102147.63;5059038;28;20114;-72
2023/09/06 06:52:45;;;;;;;;;;;;;;;27.51;44.28;102147.00;5055636;28;20028;-72
2023/09/06 06:55:10;;;;;;;;;;;;;;;27.57;44.24;102148.06;5058636;28;20091;-72
2023/09/06 06:57:35;;;;;;;;;;;;;;;27.56;44.38;102155.25;5061427;28;20770;-72
2023/09/06 07:00:05;;;;;;;;;;;;;;;27.61;44.33;102150.13;5063662;28;19974;-72
2023/09/06 07:02:31;;;;;;;;;;;;;;;27.62;44.19;102151.78;5088012;28;19948;-72
2023/09/06 07:04:57;;;;;;;;;;;;;;;27.63;44.11;102145.41;5063375;28;20303;-72
2023/09/06 07:07:23;;;;;;;;;;;;;;;27.66;44.32;102138.88;5059759;28;19943;-72
2023/09/06 07:09:49;;;;;;;;;;;;;;;27.67;44.60;102146.69;5060440;28;20424;-72
2023/09/06 07:12:14;;;;;;;;;;;;;;;27.62;44.47;102143.75;5058429;28;19990;-72
2023/09/06 07:14:40;;;;;;;;;;;;;;;27.65;44.44;102139.91;5058414;28;19957;-72
2023/09/06 07:17:05;;;;;;;;;;;;;;;27.67;44.62;102140.53;5063624;28;19943;-72
2023/09/06 07:19:30;;;;;;;;;;;;;;;27.71;44.42;102152.47;5062649;28;20347;-72
2023/09/06 07:21:56;;;;;;;;;;;;;;;27.72;44.66;102146.09;5056166;28;20620;-71
2023/09/06 07:24:21;;;;;;;;;;;;;;;27.75;44.38;102150.22;5054162;28;20053;-72
2023/09/06 07:26:48;;;;;;;;;;;;;;;27.77;44.36;102153.50;5061733;28;20556;-72
2023/09/06 07:29:13;;;;;;;;;;;;;;;27.77;44.45;102156.19;5059485;28;20452;-72
2023/09/06 07:31:39;;;;;;;;;;;;;;;27.78;44.38;102157.81;5059690;28;19957;-72
2023/09/06 07:34:04;;;;;;;;;;;;;;;27.82;44.49;102164.44;5059339;28;19981;-72
2023/09/06 07:36:30;;;;;;;;;;;;;;;27.81;44.64;102162.78;5062101;28;19944;-71
2023/09/06 07:38:56;;;;;;;;;;;;;;;27.87;44.51;102162.81;5064395;28;19955;-71
2023/09/06 07:41:22;;;;;;;;;;;;;;;27.84;44.87;102170.44;5059427;28;19950;-65
2023/09/06 07:43:47;;;;;;;;;;;;;;;27.74;45.26;102167.28;5062091;28;20028;-66
2023/09/06 07:46:12;;;;;;;;;;;;;;;27.53;45.99;102170.88;5055441;28;20039;-66
2023/09/06 07:48:39;;;;;;;;;;;;;;;27.33;46.72;102176.97;5066144;28;19955;-64
2023/09/06 07:51:05;;;;;;;;;;;;;;;26.91;47.56;102177.88;5059680;28;20548;-64
2023/09/06 07:53:31;;;;;;;;;;;;;;;26.99;47.23;102172.41;5060767;28;21223;-66
2023/09/06 07:55:56;;;;;;;;;;;;;;;27.02;47.11;102179.22;5059393;28;19946;-64
2023/09/06 07:58:22;;;;;;;;;;;;;;;26.97;47.54;102174.44;5057161;28;19966;-66
2023/09/06 08:00:48;;;;;;;;;;;;;;;27.04;47.42;102179.84;5058263;28;19972;-66
2023/09/06 08:03:14;;;;;;;;;;;;;;;26.67;48.01;102157.75;5061989;28;20545;-68
2023/09/06 08:05:39;;;;;;;;;;;;;;;26.95;47.89;102184.50;5063542;28;19961;-68
2023/09/06 08:08:06;;;;;;;;;;;;;;;26.83;48.17;102188.72;5060939;28;19951;-65
2023/09/06 08:10:32;;;;;;;;;;;;;;;26.70;48.60;102180.59;5059077;28;19952;-65
2023/09/06 08:12:57;;;;;;;;;;;;;;;26.66;48.61;102177.50;5065662;28;20287;-65
2023/09/06 08:15:23;;;;;;;;;;;;;;;26.64;48.91;102178.72;5061050;28;19950;-66
2023/09/06 08:17:48;;;;;;;;;;;;;;;26.63;49.16;102191.25;5062765;28;19935;-65
2023/09/06 08:20:15;;;;;;;;;;;;;;;26.62;48.99;102184.25;5070521;28;19943;-67
2023/09/06 08:22:41;;;;;;;;;;;;;;;26.62;49.25;102186.09;5062963;28;20355;-65
2023/09/06 08:25:06;;;;;;;;;;;;;;;26.62;49.43;102191.44;5062815;28;19949;-65
2023/09/06 08:27:32;;;;;;;;;;;;;;;26.67;48.91;102194.34;5059143;28;20320;-65
2023/09/06 08:29:58;;;;;;;;;;;;;;;26.59;49.45;102189.97;5060187;28;20412;-65
2023/09/06 08:32:23;;;;;;;;;;;;;;;26.60;49.38;102196.16;5058624;28;19951;-65
2023/09/06 08:34:49;;;;;;;;;;;;;;;26.58;48.91;102191.00;5061016;28;19942;-65
2023/09/06 08:37:14;;;;;;;;;;;;;;;26.62;48.80;102189.59;5062730;28;19949;-65
2023/09/06 08:39:40;;;;;;;;;;;;;;;26.60;49.38;102188.97;5065246;28;19959;-65
2023/09/06 08:42:06;;;;;;;;;;;;;;;26.59;49.44;102189.16;5060776;28;20436;-66
2023/09/06 08:44:32;;;;;;;;;;;;;;;26.60;49.27;102190.81;5063552;28;19969;-65
2023/09/06 08:46:59;;;;;;;;;;;;;;;26.59;49.04;102191.81;5056215;28;19943;-65
2023/09/06 08:49:25;;;;;;;;;;;;;;;26.62;49.25;102199.44;5055892;28;20014;-66
2023/09/06 08:51:51;;;;;;;;;;;;;;;26.62;49.08;102191.44;5065729;28;19947;-65
2023/09/06 08:54:17;;;;;;;;;;;;;;;26.61;49.14;102195.13;5056977;28;19995;-66
2023/09/06 08:56:43;;;;;;;;;;;;;;;26.65;49.11;102199.06;5056699;28;19949;-66
2023/09/06 08:59:09;;;;;;;;;;;;;;;26.71;49.00;102192.94;5054275;28;20586;-66
2023/09/06 09:01:34;;;;;;;;;;;;;;;26.68;48.86;102190.66;5053088;28;20085;-66
2023/09/06 09:03:59;;;;;;;;;;;;;;;26.71;49.12;102201.78;5056531;28;19976;-67
2023/09/06 09:06:25;;;;;;;;;;;;;;;26.69;48.78;102200.31;5055610;28;19945;-66
2023/09/06 09:08:50;;;;;;;;;;;;;;;26.68;49.08;102198.66;5066494;28;19968;-66
2023/09/06 09:11:20;;;;;;;;;;;;;;;26.63;49.21;102199.25;5058419;28;19975;-66
2023/09/06 09:13:45;;;;;;;;;;;;;;;26.61;49.08;102201.28;5060853;28;19954;-66
2023/09/06 09:16:11;;;;;;;;;;;;;;;26.61;49.38;102198.63;5063622;28;19946;-65
2023/09/06 09:18:38;;;;;;;;;;;;;;;26.59;49.42;102199.84;5062424;28;19943;-66
2023/09/06 09:21:04;;;;;;;;;;;;;;;26.59;49.45;102191.81;5066598;28;20111;-66
2023/09/06 09:23:30;;;;;;;;;;;;;;;26.58;49.45;102198.19;5065737;28;20549;-66
2023/09/06 09:25:56;;;;;;;;;;;;;;;26.60;49.04;102196.16;5052229;28;20406;-66
2023/09/06 09:28:21;;;;;;;;;;;;;;;26.55;49.47;102194.03;5063569;28;19955;-66
2023/09/06 09:30:47;;;;;;;;;;;;;;;26.56;49.38;102190.34;5064707;28;19947;-66
2023/09/06 09:33:13;;;;;;;;;;;;;;;26.56;49.36;102197.53;5063151;28;19967;-66
2023/09/06 09:35:40;;;;;;;;;;;;;;;26.56;49.39;102193.00;5065055;28;19953;-66
2023/09/06 09:38:10;;;;;;;;;;;;;;;26.39;49.36;102168.44;5063128;28;19951;-66
2023/09/06 09:40:36;;;;;;;;;;;;;;;26.55;49.12;102196.69;5062348;28;19985;-67
2023/09/06 09:43:02;;;;;;;;;;;;;;;26.54;49.09;102188.88;5055648;28;19987;-66
2023/09/06 09:45:38;;;;;;;;;;;;;;;26.34;49.47;102159.28;5057956;28;21421;-66
2023/09/06 09:48:05;;;;;;;;;;;;;;;26.50;49.24;102186.59;5091097;27;19944;-66
2023/09/06 09:50:33;;;;;;;;;;;;;;;26.54;49.33;102192.38;5059121;28;19949;-68
2023/09/06 09:52:59;;;;;;;;;;;;;;;26.55;49.05;102185.19;5058558;28;20542;-67
2023/09/06 09:55:34;;;;;;;;;;;;;;;26.56;49.00;102195.69;5062106;28;19949;-68
2023/09/06 09:58:05;;;;;;;;;;;;;;;26.58;49.11;102188.31;5058425;28;19971;-66
2023/09/06 10:00:31;;;;;;;;;;;;;;;26.53;49.15;102181.88;5058669;28;19944;-67
2023/09/06 10:02:57;;;;;;;;;;;;;;;26.56;48.68;102184.16;5054114;28;19959;-67
2023/09/06 10:05:26;;;;;;;;;;;;;;;26.56;48.20;102181.50;5055221;28;19944;-67
2023/09/06 10:07:53;;;;;;;;;;;;;;;26.55;48.40;102183.34;5060057;28;19939;-67
2023/09/06 10:10:19;;;;;;;;;;;;;;;26.56;48.14;102181.50;5056617;28;19985;-68
2023/09/06 10:12:45;;;;;;;;;;;;;;;26.54;48.10;102176.34;5062655;28;19982;-67
2023/09/06 10:15:15;;;;;;;;;;;;;;;26.55;48.33;102174.50;5061261;28;20009;-67
2023/09/06 10:17:41;;;;;;;;;;;;;;;26.55;47.99;102177.16;5057168;28;19992;-67
2023/09/06 10:20:13;;;;;;;;;;;;;;;26.59;47.84;102176.63;5063445;28;19945;-68
2023/09/06 10:22:43;;;;;;;;;;;;;;;26.63;48.16;102171.72;5058156;28;19942;-68
2023/09/06 10:25:10;;;;;;;;;;;;;;;26.62;48.11;102176.22;5059621;28;20029;-67
2023/09/06 10:27:44;;;;;;;;;;;;;;;26.65;48.19;102175.00;5059742;28;20460;-67
2023/09/06 10:30:11;;;;;;;;;;;;;;;26.65;48.29;102173.16;5063740;28;19944;-67
2023/09/06 10:32:41;;;;;;;;;;;;;;;26.64;48.28;102173.38;5055830;28;20039;-67
2023/09/06 10:35:27;;;;;;;;;;;;;;;26.64;48.39;102171.50;5063798;28;19949;-67
2023/09/06 10:38:11;;;;;;;;;;;;;;;26.66;47.77;102161.47;5060671;28;19946;-67
2023/09/06 10:40:45;;;;;;;;;;;;;;;26.66;48.18;102158.78;5058125;28;20003;-67
2023/09/06 10:43:11;;;;;;;;;;;;;;;26.68;48.04;102164.75;5059274;28;19955;-68
2023/09/06 10:45:36;;;;;;;;;;;;;;;26.70;48.17;102165.38;5057703;28;19955;-67
2023/09/06 10:48:08;;;;;;;;;;;;;;;26.70;48.25;102170.72;5064035;28;19994;-67
2023/09/06 10:50:34;;;;;;;;;;;;;;;26.73;47.96;102169.50;5058750;28;19940;-67
2023/09/06 10:53:01;;;;;;;;;;;;;;;26.69;48.19;102170.94;5056661;28;19948;-68
2023/09/06 10:55:29;;;;;;;;;;;;;;;26.69;48.13;102168.25;5059707;28;19944;-68
2023/09/06 10:58:00;;;;;;;;;;;;;;;26.71;47.94;102159.03;5060997;28;20034;-68
2023/09/06 11:00:30;;;;;;;;;;;;;;;26.70;48.26;102168.06;5054426;28;19988;-68
2023/09/06 11:03:08;;;;;;;;;;;;;;;26.71;48.09;102163.53;5058174;28;19964;-68
2023/09/06 11:05:38;;;;;;;;;;;;;;;26.69;47.89;102160.25;5057467;28;20418;-68
2023/09/06 11:08:05;;;;;;;;;;;;;;;26.72;47.73;102168.69;5059188;28;20500;-68
2023/09/06 11:10:31;;;;;;;;;;;;;;;26.74;48.13;102155.97;5054516;28;19963;-68
2023/09/06 11:12:57;;;;;;;;;;;;;;;26.74;47.95;102157.81;5054555;28;20429;-68
2023/09/06 11:15:23;;;;;;;;;;;;;;;26.74;47.67;102157.81;5054052;28;19990;-68
2023/09/06 11:17:49;;;;;;;;;;;;;;;26.70;48.13;102156.53;5058920;28;19940;-68
2023/09/06 11:20:16;;;;;;;;;;;;;;;26.71;47.96;102152.84;5052039;28;20399;-66
2023/09/06 11:22:51;;;;;;;;;;;;;;;26.67;47.86;102152.41;5054769;28;19997;-67
2023/09/06 11:25:17;;;;;;;;;;;;;;;26.67;48.06;102148.94;5054817;28;19944;-67
2023/09/06 11:27:45;;;;;;;;;;;;;;;26.67;48.29;102155.09;5054061;28;21073;-68
2023/09/06 11:30:15;;;;;;;;;;;;;;;26.66;48.16;102155.28;5062079;28;20021;-68
2023/09/06 11:32:41;;;;;;;;;;;;;;;26.50;48.22;102125.16;5054684;28;19945;-67
2023/09/06 11:35:09;;;;;;;;;;;;;;;26.68;48.22;102153.25;5058308;28;19949;-67
2023/09/06 11:37:38;;;;;;;;;;;;;;;26.67;48.33;102154.28;5056734;28;19955;-67
2023/09/06 11:40:14;;;;;;;;;;;;;;;26.67;48.15;102148.94;5050606;28;19998;-67
2023/09/06 11:42:41;;;;;;;;;;;;;;;26.68;48.19;102151.41;5058073;28;19942;-67
2023/09/06 11:45:09;;;;;;;;;;;;;;;26.70;48.07;102151.22;5054700;28;19959;-67
2023/09/06 11:47:35;;;;;;;;;;;;;;;26.73;47.87;102148.13;5056757;28;20474;-67
2023/09/06 11:50:03;;;;;;;;;;;;;;;26.75;48.04;102148.75;5054269;28;19944;-68
2023/09/06 11:52:30;;;;;;;;;;;;;;;26.76;47.96;102142.44;5053253;28;20429;-68
2023/09/06 11:54:56;;;;;;;;;;;;;;;26.77;48.09;102146.75;5060757;28;19935;-67
2023/09/06 11:57:30;;;;;;;;;;;;;;;26.79;47.96;102142.03;5058973;28;20056;-68
2023/09/06 11:59:59;;;;;;;;;;;;;;;26.76;48.19;102137.91;5056775;28;19947;-68
2023/09/06 12:02:29;;;;;;;;;;;;;;;26.79;47.98;102142.03;5060853;28;19982;-67
2023/09/06 12:05:03;;;;;;;;;;;;;;;26.80;47.93;102143.69;5063598;28;20351;-67
2023/09/06 12:07:29;;;;;;;;;;;;;;;26.77;47.98;102136.88;5062556;28;20426;-68
2023/09/06 12:09:58;;;;;;;;;;;;;;;26.78;48.27;102133.19;5062145;28;19952;-68
2023/09/06 12:12:24;;;;;;;;;;;;;;;26.80;48.11;102135.66;5062441;28;20471;-68
2023/09/06 12:14:49;;;;;;;;;;;;;;;26.81;48.31;102131.97;5060316;28;20620;-67
2023/09/06 12:17:16;;;;;;;;;;;;;;;26.82;47.91;102133.63;5057984;28;19952;-67
2023/09/06 12:19:42;;;;;;;;;;;;;;;26.80;48.06;102127.66;5062602;28;19944;-67
2023/09/06 12:22:07;;;;;;;;;;;;;;;26.84;48.24;102130.75;5062512;28;20014;-68
2023/09/06 12:24:33;;;;;;;;;;;;;;;26.80;48.19;102116.97;5062504;28;20002;-67
2023/09/06 12:26:59;;;;;;;;;;;;;;;26.85;48.38;102133.22;5055567;28;19982;-67
2023/09/06 12:29:24;;;;;;;;;;;;;;;26.84;48.08;102126.22;5064831;28;19952;-67
2023/09/06 12:31:50;;;;;;;;;;;;;;;26.82;48.26;102128.28;5065132;28;20010;-68
2023/09/06 12:34:16;;;;;;;;;;;;;;;26.86;48.37;102115.34;5059021;28;19960;-67